createdAt,value
2019-01-04T00:02:04.717Z,2.70
2019-01-04T00:04:35.114Z,2.70
2019-01-04T00:07:05.489Z,2.70
2019-01-04T00:09:36.021Z,2.80
2019-01-04T00:12:06.408Z,2.80
2019-01-04T00:14:36.826Z,2.80
2019-01-04T00:17:07.242Z,2.70
2019-01-04T00:19:37.654Z,2.60
2019-01-04T00:22:08.062Z,2.60
2019-01-04T00:24:38.456Z,2.70
2019-01-04T00:27:08.885Z,2.70
2019-01-04T00:29:39.295Z,2.70
2019-01-04T00:32:09.699Z,2.70
2019-01-04T00:34:40.198Z,2.70
2019-01-04T00:37:10.574Z,2.60
2019-01-04T00:39:40.982Z,2.60
2019-01-04T00:42:11.805Z,2.60
2019-01-04T00:44:42.200Z,2.70
2019-01-04T00:47:12.641Z,2.70
2019-01-04T00:49:43.048Z,2.60
2019-01-04T00:52:13.448Z,2.60
2019-01-04T00:54:43.842Z,2.50
2019-01-04T00:57:43.428Z,2.60
2019-01-04T01:00:58.729Z,2.50
2019-01-04T01:04:22.242Z,2.40
2019-01-04T01:07:45.910Z,2.50
2019-01-04T01:10:45.584Z,2.40
2019-01-04T01:13:52.773Z,2.60
2019-01-04T01:17:10.458Z,2.50
2019-01-04T01:20:49.239Z,2.40
2019-01-04T01:24:25.018Z,2.50
2019-01-04T01:27:47.477Z,2.30
2019-01-04T01:31:14.810Z,2.30
2019-01-04T01:34:23.713Z,2.20
2019-01-04T01:37:56.389Z,2.30
2019-01-04T01:41:38.267Z,2.20
2019-01-04T01:45:17.231Z,2.20
2019-01-04T01:48:06.293Z,2.30
2019-01-04T01:51:26.827Z,2.30
2019-01-04T01:53:57.226Z,2.40
2019-01-04T01:56:27.732Z,2.30
2019-01-04T01:58:58.188Z,2.20
2019-01-04T02:01:28.550Z,2.20
2019-01-04T02:03:58.937Z,2.30
2019-01-04T02:06:29.333Z,2.30
2019-01-04T02:08:59.786Z,2.30
2019-01-04T02:11:30.176Z,2.30
2019-01-04T02:14:00.575Z,2.30
2019-01-04T02:16:30.957Z,2.30
2019-01-04T02:19:01.369Z,2.30
2019-01-04T02:21:31.759Z,2.20
2019-01-04T02:24:02.162Z,2.10
2019-01-04T02:26:32.549Z,2.20
2019-01-04T02:29:02.948Z,2.20
2019-01-04T02:31:33.345Z,2.30
2019-01-04T02:34:03.727Z,2.20
2019-01-04T02:36:34.113Z,2.10
2019-01-04T02:39:05.425Z,2.20
2019-01-04T02:41:35.783Z,2.20
2019-01-04T02:44:06.188Z,2.30
2019-01-04T02:46:36.613Z,2.30
2019-01-04T02:49:06.280Z,2.20
2019-01-04T02:51:36.676Z,2.30
2019-01-04T02:54:07.090Z,2.20
2019-01-04T02:56:37.498Z,2.20
2019-01-04T02:59:07.894Z,2.20
2019-01-04T03:01:38.296Z,2.30
2019-01-04T03:04:08.722Z,2.30
2019-01-04T03:06:39.089Z,2.30
2019-01-04T03:09:09.464Z,2.30
2019-01-04T03:11:39.850Z,2.30
2019-01-04T03:14:10.287Z,2.30
2019-01-04T03:16:40.712Z,2.30
2019-01-04T03:19:11.161Z,2.10
2019-01-04T03:21:41.578Z,2.10
2019-01-04T03:24:11.991Z,2.10
2019-01-04T03:26:42.394Z,2.10
2019-01-04T03:29:12.765Z,2.20
2019-01-04T03:31:43.148Z,2.20
2019-01-04T03:34:13.546Z,2.20
2019-01-04T03:36:43.932Z,2.20
2019-01-04T03:39:14.335Z,2.20
2019-01-04T03:41:44.739Z,2.20
2019-01-04T03:44:15.113Z,2.10
2019-01-04T03:46:45.498Z,2.00
2019-01-04T03:49:15.878Z,2.10
2019-01-04T03:51:46.314Z,2.10
2019-01-04T03:54:16.714Z,2.10
2019-01-04T03:56:47.118Z,2.10
2019-01-04T03:59:17.521Z,2.10
2019-01-04T04:01:47.893Z,2.10
2019-01-04T04:04:18.337Z,2.10
2019-01-04T04:06:48.700Z,2.10
2019-01-04T04:09:20.185Z,2.20
2019-01-04T04:11:50.545Z,2.00
2019-01-04T04:14:20.965Z,2.00
2019-01-04T04:16:51.401Z,2.10
2019-01-04T04:19:21.791Z,2.10
2019-01-04T04:21:52.217Z,2.00
2019-01-04T04:24:22.693Z,2.10
2019-01-04T04:26:53.227Z,2.20
2019-01-04T04:29:23.629Z,2.10
2019-01-04T04:31:54.009Z,2.10
2019-01-04T04:34:24.410Z,2.20
2019-01-04T04:36:54.802Z,2.00
2019-01-04T04:39:25.196Z,2.10
2019-01-04T04:41:55.578Z,2.00
2019-01-04T04:44:25.968Z,2.00
2019-01-04T04:46:56.382Z,2.10
2019-01-04T04:49:26.762Z,2.10
2019-01-04T04:51:57.211Z,2.00
2019-01-04T04:54:27.598Z,2.00
2019-01-04T04:56:58.053Z,2.00
2019-01-04T04:59:28.509Z,2.00
2019-01-04T05:01:58.918Z,1.90
2019-01-04T05:04:29.410Z,1.90
2019-01-04T05:06:59.902Z,2.00
2019-01-04T05:09:30.312Z,2.00
2019-01-04T05:12:00.786Z,2.10
2019-01-04T05:14:31.205Z,2.10
2019-01-04T05:17:01.626Z,2.10
2019-01-04T05:19:40.328Z,2.10
2019-01-04T05:22:10.709Z,2.10
2019-01-04T05:24:41.088Z,2.10
2019-01-04T05:27:11.477Z,2.00
2019-01-04T05:29:41.886Z,2.00
2019-01-04T05:32:12.318Z,2.00
2019-01-04T05:34:42.722Z,2.10
2019-01-04T05:37:13.123Z,2.00
2019-01-04T05:39:43.505Z,2.10
2019-01-04T05:42:13.887Z,2.00
2019-01-04T05:44:44.295Z,2.10
2019-01-04T05:47:14.670Z,2.00
2019-01-04T05:49:45.077Z,1.90
2019-01-04T05:52:15.485Z,2.00
2019-01-04T05:54:45.881Z,1.90
2019-01-04T05:57:16.329Z,2.00
2019-01-04T05:59:46.691Z,1.90
2019-01-04T06:02:17.119Z,1.80
2019-01-04T06:04:47.616Z,1.80
2019-01-04T06:07:18.028Z,1.80
2019-01-04T06:09:48.634Z,1.90
2019-01-04T06:12:19.063Z,1.90
2019-01-04T06:14:49.447Z,1.90
2019-01-04T06:17:19.871Z,1.90
2019-01-04T06:19:50.271Z,1.80
2019-01-04T06:22:20.689Z,1.90
2019-01-04T06:24:51.162Z,1.80
2019-01-04T06:27:21.614Z,1.80
2019-01-04T06:29:52.057Z,1.90
2019-01-04T06:32:22.450Z,1.90
2019-01-04T06:34:52.863Z,2.00
2019-01-04T06:37:23.237Z,2.00
2019-01-04T06:39:53.639Z,2.00
2019-01-04T06:42:24.033Z,1.90
2019-01-04T06:44:54.490Z,1.90
2019-01-04T06:47:25.946Z,1.90
2019-01-04T06:49:56.340Z,1.90
2019-01-04T06:52:26.749Z,1.80
2019-01-04T06:55:32.377Z,1.80
2019-01-04T06:58:02.769Z,1.80
2019-01-04T07:00:33.233Z,1.80
2019-01-04T07:03:03.636Z,1.80
2019-01-04T07:05:34.160Z,1.90
2019-01-04T07:08:04.569Z,1.90
2019-01-04T07:10:34.981Z,1.90
2019-01-04T07:13:05.433Z,1.80
2019-01-04T07:15:35.827Z,1.80
2019-01-04T07:18:06.179Z,1.80
2019-01-04T07:20:36.560Z,1.90
2019-01-04T07:23:07.038Z,1.90
2019-01-04T07:25:37.446Z,1.80
2019-01-04T07:28:07.854Z,1.80
2019-01-04T07:30:38.253Z,1.70
2019-01-04T07:33:08.689Z,1.70
2019-01-04T07:35:39.120Z,1.70
2019-01-04T07:38:09.601Z,1.70
2019-01-04T07:40:41.637Z,1.70
2019-01-04T07:43:16.479Z,1.80
2019-01-04T07:45:44.148Z,1.80
2019-01-04T07:48:14.540Z,1.80
2019-01-04T07:50:44.931Z,1.80
2019-01-04T07:53:15.358Z,1.90
2019-01-04T07:55:45.762Z,2.00
2019-01-04T07:58:16.223Z,2.00
2019-01-04T08:00:46.588Z,2.00
2019-01-04T08:03:26.889Z,2.00
2019-01-04T08:06:01.929Z,2.10
2019-01-04T08:08:32.346Z,2.20
2019-01-04T08:11:02.741Z,2.20
2019-01-04T08:13:33.132Z,2.20
2019-01-04T08:16:03.560Z,2.20
2019-01-04T08:18:33.968Z,2.10
2019-01-04T08:21:04.334Z,2.00
2019-01-04T08:23:34.945Z,2.30
2019-01-04T08:26:05.353Z,2.40
2019-01-04T08:28:35.765Z,2.60
2019-01-04T08:31:06.340Z,2.50
2019-01-04T08:33:36.711Z,2.50
2019-01-04T08:36:07.103Z,2.50
2019-01-04T08:38:37.514Z,2.50
2019-01-04T08:41:07.971Z,2.60
2019-01-04T08:43:38.493Z,2.70
2019-01-04T08:46:08.877Z,2.80
2019-01-04T08:48:39.349Z,2.70
2019-01-04T08:51:09.908Z,2.80
2019-01-04T08:54:17.577Z,2.90
2019-01-04T08:56:47.978Z,2.90
2019-01-04T08:59:18.382Z,2.80
2019-01-04T09:01:50.794Z,2.90
2019-01-04T09:04:21.265Z,2.80
2019-01-04T09:06:51.654Z,2.70
2019-01-04T09:09:22.042Z,2.70
2019-01-04T09:11:52.476Z,2.70
2019-01-04T09:14:22.861Z,2.70
2019-01-04T09:16:53.315Z,2.50
2019-01-04T09:19:23.729Z,2.50
2019-01-04T09:21:54.140Z,2.50
2019-01-04T09:24:24.790Z,2.50
2019-01-04T09:26:55.240Z,2.40
2019-01-04T09:29:25.646Z,2.50
2019-01-04T09:31:56.089Z,2.30
2019-01-04T09:34:26.475Z,2.30
2019-01-04T09:36:56.872Z,2.20
2019-01-04T09:39:28.615Z,2.30
2019-01-04T09:42:13.864Z,2.30
2019-01-04T09:44:45.930Z,2.50
2019-01-04T09:47:16.457Z,2.70
2019-01-04T09:49:47.037Z,2.60
2019-01-04T09:52:17.451Z,2.70
2019-01-04T09:54:48.064Z,2.80
2019-01-04T09:57:23.430Z,2.90
2019-01-04T09:59:50.674Z,3.00
2019-01-04T10:02:21.122Z,3.00
2019-01-04T10:04:51.541Z,3.10
2019-01-04T10:07:22.085Z,3.20
2019-01-04T10:09:53.371Z,3.20
2019-01-04T10:12:25.967Z,3.30
2019-01-04T10:14:57.164Z,2.90
2019-01-04T10:17:27.632Z,2.80
2019-01-04T10:19:58.461Z,2.90
2019-01-04T10:22:28.989Z,3.00
2019-01-04T10:24:59.891Z,3.10
2019-01-04T10:27:30.376Z,3.20
2019-01-04T10:30:01.279Z,3.20
2019-01-04T10:32:32.098Z,3.10
2019-01-04T10:35:10.532Z,3.00
2019-01-04T10:37:38.264Z,3.00
2019-01-04T10:40:11.196Z,3.00
2019-01-04T10:42:41.128Z,3.20
2019-01-04T10:45:11.704Z,3.10
2019-01-04T10:47:42.328Z,3.10
2019-01-04T10:50:13.119Z,3.10
2019-01-04T10:52:43.642Z,3.10
2019-01-04T10:55:14.545Z,2.90
2019-01-04T10:57:45.393Z,3.00
2019-01-04T11:00:16.211Z,3.00
2019-01-04T11:02:47.056Z,2.80
2019-01-04T11:05:17.742Z,2.90
2019-01-04T11:07:48.670Z,2.90
2019-01-04T11:10:23.318Z,2.70
2019-01-04T11:12:53.836Z,2.50
2019-01-04T11:15:24.362Z,2.70
2019-01-04T11:17:55.149Z,2.60
2019-01-04T11:20:54.850Z,2.60
2019-01-04T11:24:14.147Z,2.70
2019-01-04T11:27:01.265Z,2.80
2019-01-04T11:30:31.183Z,3.00
2019-01-04T11:33:31.293Z,3.10
2019-01-04T11:36:50.822Z,3.20
2019-01-04T11:40:14.454Z,3.40
2019-01-04T11:43:31.775Z,3.30
2019-01-04T11:46:48.757Z,3.10
2019-01-04T11:50:24.416Z,3.00
2019-01-04T11:52:59.600Z,3.10
2019-01-04T11:55:29.998Z,3.10
2019-01-04T11:58:00.403Z,3.30
2019-01-04T12:00:30.795Z,3.30
2019-01-04T12:03:01.258Z,3.20
2019-01-04T12:05:31.651Z,3.10
2019-01-04T12:08:02.054Z,2.90
2019-01-04T12:10:32.434Z,3.10
2019-01-04T12:13:02.794Z,3.10
2019-01-04T12:15:33.167Z,3.10
2019-01-04T12:18:03.572Z,3.30
2019-01-04T12:20:34.033Z,3.20
2019-01-04T12:23:04.458Z,3.30
2019-01-04T12:25:34.875Z,3.30
2019-01-04T12:28:05.250Z,3.40
2019-01-04T12:30:35.646Z,3.40
2019-01-04T12:33:06.025Z,3.60
2019-01-04T12:35:36.390Z,3.70
2019-01-04T12:38:06.762Z,3.70
2019-01-04T12:40:37.189Z,3.60
2019-01-04T12:43:07.623Z,3.40
2019-01-04T12:45:38.094Z,3.50
2019-01-04T12:48:08.696Z,3.50
2019-01-04T12:50:39.073Z,3.50
2019-01-04T12:53:09.481Z,3.50
2019-01-04T12:55:39.879Z,3.10
2019-01-04T12:58:10.292Z,3.10
2019-01-04T13:00:40.703Z,3.00
2019-01-04T13:03:11.086Z,3.20
2019-01-04T13:05:41.505Z,3.30
2019-01-04T13:08:11.957Z,3.20
2019-01-04T13:10:42.375Z,3.20
2019-01-04T13:13:12.803Z,3.20
2019-01-04T13:15:43.213Z,3.20
2019-01-04T13:18:13.614Z,3.30
2019-01-04T13:20:44.030Z,3.40
2019-01-04T13:23:14.531Z,3.30
2019-01-04T13:25:44.947Z,3.10
2019-01-04T13:28:15.351Z,3.30
2019-01-04T13:30:45.737Z,3.40
2019-01-04T13:33:16.102Z,3.30
2019-01-04T13:35:46.478Z,3.40
2019-01-04T13:38:19.979Z,3.40
2019-01-04T13:40:48.982Z,3.40
2019-01-04T13:43:19.346Z,3.40
2019-01-04T13:45:49.714Z,3.30
2019-01-04T13:48:20.098Z,3.30
2019-01-04T13:50:50.470Z,3.10
2019-01-04T13:53:20.879Z,3.10
2019-01-04T13:55:51.282Z,3.10
2019-01-04T13:58:21.702Z,3.20
2019-01-04T14:00:52.106Z,3.30
2019-01-04T14:03:22.533Z,3.30
2019-01-04T14:05:52.930Z,3.20
2019-01-04T14:08:23.326Z,3.30
2019-01-04T14:10:53.714Z,3.30
2019-01-04T14:13:24.133Z,3.30
2019-01-04T14:15:54.577Z,3.30
2019-01-04T14:18:25.074Z,3.20
2019-01-04T14:20:55.449Z,3.30
2019-01-04T14:23:28.823Z,3.00
2019-01-04T14:25:57.952Z,3.10
2019-01-04T14:28:28.361Z,3.20
2019-01-04T14:30:58.718Z,3.20
2019-01-04T14:33:29.086Z,3.30
2019-01-04T14:35:59.441Z,3.30
2019-01-04T14:38:29.874Z,3.30
2019-01-04T14:41:00.259Z,3.10
2019-01-04T14:43:30.654Z,3.00
2019-01-04T14:46:01.017Z,3.00
2019-01-04T14:48:31.418Z,3.00
2019-01-04T14:51:01.804Z,3.00
2019-01-04T14:53:32.245Z,3.00
2019-01-04T14:56:02.702Z,2.90
2019-01-04T14:58:33.144Z,2.80
2019-01-04T15:01:03.866Z,2.70
2019-01-04T15:03:34.268Z,2.60
2019-01-04T15:06:04.641Z,2.60
2019-01-04T15:08:35.037Z,2.40
2019-01-04T15:11:05.455Z,2.40
2019-01-04T15:13:35.845Z,2.50
2019-01-04T15:16:06.262Z,2.20
2019-01-04T15:18:36.646Z,2.20
2019-01-04T15:21:07.084Z,2.40
2019-01-04T15:23:37.467Z,2.30
2019-01-04T15:26:07.833Z,2.20
2019-01-04T15:28:38.191Z,1.90
2019-01-04T15:31:08.566Z,1.70
2019-01-04T15:33:39.034Z,1.70
2019-01-04T15:36:09.503Z,1.90
2019-01-04T15:38:39.902Z,1.70
2019-01-04T15:41:10.293Z,1.60
2019-01-04T15:43:40.650Z,1.50
2019-01-04T15:46:11.041Z,1.50
2019-01-04T15:48:41.429Z,1.50
2019-01-04T15:51:11.853Z,1.60
2019-01-04T15:53:42.228Z,1.70
2019-01-04T15:56:12.642Z,1.70
2019-01-04T15:58:43.035Z,1.80
2019-01-04T16:01:13.421Z,1.60
2019-01-04T16:03:43.857Z,1.50
2019-01-04T16:06:14.229Z,1.60
2019-01-04T16:08:44.673Z,1.60
2019-01-04T16:11:15.054Z,1.80
2019-01-04T16:13:45.470Z,1.90
2019-01-04T16:16:15.834Z,2.00
2019-01-04T16:18:46.274Z,2.10
2019-01-04T16:21:16.653Z,2.10
2019-01-04T16:23:47.038Z,2.00
2019-01-04T16:26:17.418Z,1.80
2019-01-04T16:28:47.791Z,2.00
2019-01-04T16:31:18.160Z,1.80
2019-01-04T16:33:48.570Z,2.00
2019-01-04T16:36:18.964Z,2.10
2019-01-04T16:38:49.376Z,2.20
2019-01-04T16:41:19.791Z,2.20
2019-01-04T16:43:50.206Z,2.20
2019-01-04T16:46:21.704Z,2.40
2019-01-04T16:48:52.087Z,2.30
2019-01-04T16:51:22.479Z,2.20
2019-01-04T16:53:52.846Z,2.20
2019-01-04T16:56:23.237Z,2.00
2019-01-04T16:58:53.670Z,2.10
2019-01-04T17:01:24.105Z,2.00
2019-01-04T17:03:54.590Z,2.00
2019-01-04T17:06:25.079Z,2.00
2019-01-04T17:08:55.492Z,1.90
2019-01-04T17:11:25.889Z,1.90
2019-01-04T17:13:56.273Z,1.90
2019-01-04T17:16:26.653Z,2.00
2019-01-04T17:18:57.042Z,2.00
2019-01-04T17:21:27.445Z,2.10
2019-01-04T17:23:57.830Z,2.10
2019-01-04T17:26:28.237Z,2.30
2019-01-04T17:28:58.609Z,2.40
2019-01-04T17:31:29.002Z,2.50
2019-01-04T17:33:59.413Z,2.50
2019-01-04T17:36:29.995Z,2.50
2019-01-04T17:39:00.401Z,2.50
2019-01-04T17:41:30.846Z,2.60
2019-01-04T17:44:01.230Z,2.60
2019-01-04T17:46:31.679Z,2.60
2019-01-04T17:49:02.081Z,2.70
2019-01-04T17:51:32.472Z,2.60
2019-01-04T17:54:02.822Z,2.70
2019-01-04T17:56:35.544Z,2.70
2019-01-04T17:59:08.283Z,2.40
2019-01-04T18:01:38.647Z,2.40
2019-01-04T18:04:09.033Z,2.50
2019-01-04T18:06:39.570Z,2.50
2019-01-04T18:09:09.949Z,2.40
2019-01-04T18:11:40.322Z,2.40
2019-01-04T18:14:10.798Z,2.30
2019-01-04T18:16:41.226Z,2.20
2019-01-04T18:19:11.723Z,2.20
2019-01-04T18:21:42.106Z,2.30
2019-01-04T18:24:12.477Z,2.20
2019-01-04T18:26:42.917Z,2.20
2019-01-04T18:29:13.437Z,2.40
2019-01-04T18:31:43.845Z,2.40
2019-01-04T18:34:14.238Z,2.50
2019-01-04T18:36:44.658Z,2.50
2019-01-04T18:39:15.049Z,2.50
2019-01-04T18:41:45.541Z,2.50
2019-01-04T18:44:15.952Z,2.40
2019-01-04T18:46:46.345Z,2.40
2019-01-04T18:49:16.797Z,2.30
2019-01-04T18:51:47.198Z,2.40
2019-01-04T18:54:17.626Z,2.50
2019-01-04T18:56:48.089Z,2.60
2019-01-04T18:59:18.506Z,2.60
2019-01-04T19:01:48.891Z,2.50
2019-01-04T19:04:19.305Z,2.50
2019-01-04T19:06:49.715Z,2.50
2019-01-04T19:09:20.134Z,2.50
2019-01-04T19:11:50.585Z,2.50
2019-01-04T19:14:21.066Z,2.40
2019-01-04T19:16:51.477Z,2.30
2019-01-04T19:19:21.862Z,2.30
2019-01-04T19:21:52.269Z,2.20
2019-01-04T19:24:22.630Z,2.00
2019-01-04T19:26:53.044Z,2.10
2019-01-04T19:29:23.883Z,2.20
2019-01-04T19:31:54.290Z,2.20
2019-01-04T19:34:24.685Z,2.10
2019-01-04T19:36:55.119Z,2.20
2019-01-04T19:39:25.554Z,2.30
2019-01-04T19:41:56.057Z,2.20
2019-01-04T19:44:26.436Z,2.30
2019-01-04T19:46:56.853Z,2.20
2019-01-04T19:49:27.303Z,2.20
2019-01-04T19:51:57.794Z,2.30
2019-01-04T19:54:28.197Z,2.40
2019-01-04T19:56:58.673Z,2.30
2019-01-04T19:59:29.190Z,2.20
2019-01-04T20:01:59.665Z,2.10
2019-01-04T20:04:30.022Z,2.20
2019-01-04T20:08:08.306Z,2.00
2019-01-04T20:11:36.186Z,2.00
2019-01-04T20:15:30.008Z,2.20
2019-01-04T20:18:31.422Z,2.30
2019-01-04T20:21:15.551Z,2.30
2019-01-04T20:24:23.322Z,2.30
2019-01-04T20:27:11.573Z,2.30
2019-01-04T20:30:01.089Z,2.30
2019-01-04T20:32:52.523Z,2.20
2019-01-04T20:35:40.596Z,2.30
2019-01-04T20:38:22.169Z,2.30
2019-01-04T20:41:10.194Z,2.30
2019-01-04T20:44:02.402Z,2.40
2019-01-04T20:46:49.652Z,2.40
2019-01-04T20:49:34.401Z,2.40
2019-01-04T20:52:38.808Z,2.40
2019-01-04T20:55:26.743Z,2.50
2019-01-04T20:58:14.846Z,2.60
2019-01-04T21:01:01.009Z,2.60
2019-01-04T21:03:48.990Z,2.60
2019-01-04T21:06:32.568Z,2.70
2019-01-04T21:09:34.193Z,2.70
2019-01-04T21:12:31.104Z,2.60
2019-01-04T21:15:23.222Z,2.50
2019-01-04T21:18:14.222Z,2.50
2019-01-04T21:21:00.445Z,2.70
2019-01-04T21:23:44.811Z,2.60
2019-01-04T21:26:43.239Z,2.70
2019-01-04T21:29:28.769Z,2.50
2019-01-04T21:32:16.676Z,2.60
2019-01-04T21:35:21.335Z,2.50
2019-01-04T21:38:04.485Z,2.40
2019-01-04T21:40:53.813Z,2.40
2019-01-04T21:43:40.421Z,2.40
2019-01-04T21:46:41.757Z,2.50
2019-01-04T21:49:43.181Z,2.50
2019-01-04T21:52:32.519Z,2.50
2019-01-04T21:55:13.806Z,2.40
2019-01-04T21:58:10.333Z,2.50
2019-01-04T22:01:11.769Z,2.50
2019-01-04T22:04:01.115Z,2.50
2019-01-04T22:06:56.385Z,2.20
2019-01-04T22:09:51.913Z,1.90
2019-01-04T22:12:40.045Z,2.00
2019-01-04T22:15:35.258Z,2.10
2019-01-04T22:18:23.115Z,2.00
2019-01-04T22:21:15.451Z,2.10
2019-01-04T22:24:31.850Z,2.10
2019-01-04T22:27:26.326Z,2.20
2019-01-04T22:30:08.944Z,2.20
2019-01-04T22:32:56.922Z,2.00
2019-01-04T22:35:46.290Z,2.00
2019-01-04T22:38:31.813Z,1.90
2019-01-04T22:41:27.065Z,1.80
2019-01-04T22:44:22.428Z,1.80
2019-01-04T22:47:08.869Z,1.80
2019-01-04T22:50:01.257Z,1.70
2019-01-04T22:52:49.253Z,1.80
2019-01-04T22:55:47.618Z,1.90
2019-01-04T22:58:55.290Z,1.70
2019-01-04T23:01:53.812Z,1.70
2019-01-04T23:04:42.243Z,1.60
2019-01-04T23:07:44.814Z,1.70
2019-01-04T23:10:32.906Z,1.70
2019-01-04T23:13:40.373Z,1.80
2019-01-04T23:16:28.329Z,1.80
2019-01-04T23:19:29.937Z,1.60
2019-01-04T23:22:33.485Z,1.50
2019-01-04T23:25:18.050Z,1.40
2019-01-04T23:28:06.481Z,1.40
2019-01-04T23:30:55.799Z,1.40
2019-01-04T23:33:48.374Z,1.50
2019-01-04T23:36:52.780Z,1.50
2019-01-04T23:39:42.079Z,1.50
2019-01-04T23:42:31.719Z,1.50
2019-01-04T23:45:19.885Z,1.50
2019-01-04T23:48:08.169Z,1.50
2019-01-04T23:51:15.853Z,1.50
2019-01-04T23:54:04.127Z,1.50
2019-01-04T23:56:52.172Z,1.50
2019-01-04T23:59:58.642Z,1.40
